Time;durP1;ratioP1;P1;durP2;ratioP2;P2;SDS_P1;SDS_P2;PMS_P1;PMS_P2;Temp;Humidity;BMP_temperature;BMP_pressure;BME280_temperature;BME280_humidity;BME280_pressure;Samples;Min_cycle;Max_cycle;Signal;HPM_P1;HPM_P2
2022/06/21 00:22:15;;;;;;;1.17;0.57;;;;;;;22.05;36.63;101617.38;16135095;19;134292;-64
2022/06/21 00:27:36;;;;;;;3.33;0.67;;;;;;;22.03;36.46;101609.25;16134254;19;129861;-64
2022/06/21 00:32:58;;;;;;;1.23;0.50;;;;;;;22.04;36.31;101587.81;16134132;19;130025;-65
2022/06/21 00:38:27;;;;;;;1.55;0.60;;;;;;;22.04;36.16;101590.59;16132960;19;129177;-64
2022/06/21 00:43:53;;;;;;;1.23;0.60;;;;;;;22.02;36.20;101585.28;16132892;19;130100;-65
2022/06/21 00:49:21;;;;;;;2.70;0.80;;;;;;;22.01;36.45;101589.19;16131050;19;129942;-65
2022/06/21 00:54:57;;;;;;;0.98;0.68;;;;;;;22.02;36.59;101606.72;16132519;19;129546;-65
2022/06/21 01:00:37;;;;;;;;;;;;;;;21.97;36.70;101611.09;16129985;19;130815;-65
2022/06/21 01:06:04;;;;;;;1.77;0.60;;;;;;;21.99;36.45;101608.09;16133218;19;131617;-65
2022/06/21 01:11:37;;;;;;;0.85;0.50;;;;;;;21.97;36.39;101611.09;16134470;19;130256;-64
2022/06/21 01:16:59;;;;;;;0.85;0.40;;;;;;;21.96;36.61;101598.28;16130874;19;130170;-64
2022/06/21 01:22:24;;;;;;;1.60;0.50;;;;;;;21.95;36.91;101598.53;16133260;19;130038;-64
2022/06/21 01:27:47;;;;;;;1.83;0.60;;;;;;;21.94;36.90;101594.06;16143868;19;130500;-64
2022/06/21 01:33:12;;;;;;;2.78;0.50;;;;;;;21.94;36.56;101588.47;16143049;19;129909;-64
2022/06/21 01:38:40;;;;;;;2.20;0.53;;;;;;;21.93;36.82;101573.72;16144866;19;129737;-64
2022/06/21 01:44:07;;;;;;;2.00;0.43;;;;;;;21.93;36.62;101592.38;16141979;19;129600;-64
2022/06/21 01:49:33;;;;;;;1.45;0.50;;;;;;;21.91;36.44;101587.06;16145254;19;129961;-65
2022/06/21 01:55:34;;;;;;;0.75;0.40;;;;;;;21.89;36.97;101568.91;16142079;19;129658;-64
2022/06/21 02:01:12;;;;;;;1.48;0.43;;;;;;;21.91;36.60;101558.38;16140326;19;130074;-65
2022/06/21 02:06:41;;;;;;;1.00;0.68;;;;;;;21.87;36.43;101527.38;16143596;19;129378;-64
2022/06/21 02:12:05;;;;;;;2.25;0.50;;;;;;;21.85;36.76;101537.91;16145531;19;129667;-64
2022/06/21 02:17:34;;;;;;;1.40;0.70;;;;;;;21.86;36.83;101524.84;16145443;19;129767;-64
2022/06/21 02:22:56;;;;;;;0.50;0.40;;;;;;;21.85;36.67;101517.59;16141331;19;129859;-64
2022/06/21 02:28:19;;;;;;;1.35;0.40;;;;;;;21.83;37.11;101531.78;16142750;19;130002;-64
2022/06/21 02:33:45;;;;;;;1.10;0.40;;;;;;;21.82;36.65;101533.69;16141374;19;129394;-64
2022/06/21 02:39:13;;;;;;;0.50;0.40;;;;;;;21.82;36.87;101542.06;16139998;19;129548;-64
2022/06/21 02:44:42;;;;;;;0.60;0.43;;;;;;;21.82;36.79;101546.81;16144364;19;130297;-64
2022/06/21 02:50:36;;;;;;;2.60;0.50;;;;;;;21.81;36.95;101551.50;16142714;19;130560;-64
2022/06/21 02:56:36;;;;;;;1.58;0.60;;;;;;;21.79;37.04;101548.13;16139120;19;129020;-64
2022/06/21 03:02:07;;;;;;;1.10;0.43;;;;;;;21.78;36.88;101540.91;16125661;19;129609;-64
2022/06/21 03:07:33;;;;;;;1.48;0.40;;;;;;;21.77;37.21;101544.78;16132421;19;129497;-65
2022/06/21 03:13:13;;;;;;;0.73;0.30;;;;;;;21.77;37.30;101522.50;16131827;19;131754;-64
2022/06/21 03:18:44;;;;;;;0.80;0.40;;;;;;;21.76;36.78;101526.38;16128860;19;129856;-64
2022/06/21 03:24:14;;;;;;;1.15;0.38;;;;;;;21.75;37.10;101523.81;16131173;19;129996;-64
2022/06/21 03:29:36;;;;;;;0.80;0.40;;;;;;;21.73;37.12;101507.38;16128552;19;129570;-64
2022/06/21 03:35:00;;;;;;;0.50;0.40;;;;;;;21.73;36.90;101503.72;16132441;19;130340;-65
2022/06/21 03:46:08;;;;;;;2.17;0.82;;;;;;;21.70;36.73;101502.31;16137356;19;129439;-64
2022/06/21 03:51:38;;;;;;;2.17;0.60;;;;;;;21.69;36.70;101503.41;16137794;19;130349;-64
2022/06/21 03:57:03;;;;;;;0.82;0.50;;;;;;;21.70;37.02;101504.25;16136933;19;129930;-64
2022/06/21 04:02:36;;;;;;;3.00;0.57;;;;;;;21.69;36.94;101502.56;16133851;19;130428;-65
2022/06/21 04:08:19;;;;;;;0.90;0.60;;;;;;;21.68;36.99;101490.56;16137793;19;130465;-64
2022/06/21 04:13:51;;;;;;;2.42;0.75;;;;;;;21.67;37.13;101494.47;16136367;19;130443;-65
2022/06/21 04:19:31;;;;;;;1.83;0.60;;;;;;;21.67;37.07;101491.66;16132585;19;130401;-65
2022/06/21 04:25:05;;;;;;;1.00;0.40;;;;;;;21.64;37.30;101478.28;16135296;19;131857;-64
2022/06/21 04:30:34;;;;;;;2.35;0.60;;;;;;;21.64;36.84;101473.53;16132864;19;131882;-65
2022/06/21 04:36:05;;;;;;;1.35;0.50;;;;;;;21.65;36.88;101475.22;16130550;19;130476;-65
2022/06/21 04:41:36;;;;;;;2.10;0.40;;;;;;;21.65;36.86;101471.63;16129604;19;130899;-65
2022/06/21 04:47:32;;;;;;;1.10;0.50;;;;;;;21.62;37.31;101481.28;16130226;19;130142;-65
2022/06/21 04:53:09;;;;;;;1.30;0.60;;;;;;;21.64;37.10;101483.84;16129564;19;130668;-65
2022/06/21 04:58:31;;;;;;;1.75;0.55;;;;;;;21.63;36.95;101493.28;16129631;19;130060;-65
2022/06/21 05:03:53;;;;;;;0.90;0.52;;;;;;;21.62;36.94;101486.88;16130913;19;129076;-64
2022/06/21 05:09:19;;;;;;;1.23;0.60;;;;;;;21.63;36.94;101490.50;16133289;19;130159;-65
2022/06/21 05:14:45;;;;;;;2.03;0.60;;;;;;;21.63;37.04;101487.72;16132100;19;130122;-65
2022/06/21 05:20:16;;;;;;;2.42;0.40;;;;;;;21.64;37.50;101500.56;16128888;19;132340;-65
2022/06/21 05:25:42;;;;;;;1.27;0.60;;;;;;;21.63;37.29;101499.69;16131348;19;129809;-64
2022/06/21 05:31:16;;;;;;;0.93;0.47;;;;;;;21.64;37.24;101500.56;16128617;19;130224;-64
2022/06/21 05:36:41;;;;;;;0.82;0.40;;;;;;;21.63;37.21;101502.47;16126048;19;128999;-64
2022/06/21 05:42:06;;;;;;;2.33;0.32;;;;;;;21.64;37.33;101506.13;16125532;19;130431;-65
2022/06/21 05:47:30;;;;;;;1.23;0.57;;;;;;;21.63;37.51;101515.56;16130764;19;130282;-65
2022/06/21 05:52:56;;;;;;;3.60;0.60;;;;;;;21.63;37.32;101513.63;16130221;19;131218;-65
2022/06/21 05:58:29;;;;;;;2.13;0.77;;;;;;;21.72;36.97;101510.44;16129243;19;130364;-57
2022/06/21 06:04:02;;;;;;;4.78;0.88;;;;;;;21.82;36.84;101494.72;16131994;19;130094;-57
2022/06/21 06:09:38;;;;;;;0.70;0.40;;;;;;;21.94;37.22;101519.69;16131425;19;129869;-57
2022/06/21 06:15:04;;;;;;;0.88;0.57;;;;;;;22.01;37.05;101505.59;16140057;19;129873;-57
2022/06/21 06:20:44;;;;;;;1.70;0.60;;;;;;;22.08;36.76;101495.09;16140413;19;131598;-56
2022/06/21 06:26:13;;;;;;;2.70;0.50;;;;;;;22.13;36.52;101519.41;16140956;19;130986;-58
2022/06/21 06:31:51;;;;;;;4.15;0.70;;;;;;;22.17;36.91;101514.16;16139290;19;129722;-57
2022/06/21 06:37:36;;;;;;;4.07;0.52;;;;;;;22.20;36.40;101527.59;16138833;19;129499;-57
2022/06/21 06:43:05;;;;;;;4.10;0.80;;;;;;;22.22;36.53;101528.22;16146462;19;129135;-56
2022/06/21 06:48:32;;;;;;;2.70;0.50;;;;;;;22.23;36.65;101530.72;16148714;19;129259;-57
2022/06/21 06:53:56;;;;;;;1.50;0.50;;;;;;;22.30;36.46;101555.63;16144781;19;129424;-57
2022/06/21 06:59:20;;;;;;;1.95;0.60;;;;;;;22.39;36.93;101540.19;16145198;19;129337;-56
2022/06/21 07:04:47;;;;;;;1.50;0.52;;;;;;;22.46;36.61;101539.13;16140502;19;130227;-57
2022/06/21 07:10:15;;;;;;;5.18;0.68;;;;;;;22.50;36.79;101534.75;16140705;19;130535;-56
2022/06/21 07:15:41;;;;;;;1.25;0.45;;;;;;;22.52;36.73;101529.75;16146309;19;129337;-57
2022/06/21 07:21:03;;;;;;;1.42;0.50;;;;;;;22.49;36.44;101533.03;16139998;19;129552;-55
2022/06/21 07:26:32;;;;;;;1.20;0.55;;;;;;;22.52;36.75;101526.97;16142657;19;130023;-54
2022/06/21 07:32:05;;;;;;;1.38;0.60;;;;;;;22.57;36.64;101519.50;16138813;19;129424;-55
2022/06/21 07:37:35;;;;;;;2.72;0.50;;;;;;;22.59;36.51;101513.66;16137784;19;128920;-57
2022/06/21 07:43:25;;;;;;;1.42;0.40;;;;;;;22.54;36.43;101503.28;16144278;19;130037;-57
2022/06/21 07:49:09;;;;;;;1.88;0.70;;;;;;;22.54;36.63;101496.84;16141736;19;129239;-58
2022/06/21 07:54:38;;;;;;;2.42;0.50;;;;;;;22.51;36.49;101491.81;16142540;19;129145;-58
2022/06/21 08:00:11;;;;;;;3.72;0.55;;;;;;;22.48;36.66;101482.00;16141472;19;128984;-57
2022/06/21 08:11:33;;;;;;;1.92;0.50;;;;;;;22.43;36.64;101468.84;16139194;19;129626;-57
2022/06/21 08:17:03;;;;;;;4.50;0.70;;;;;;;22.42;36.99;101469.13;16143778;19;130473;-55
2022/06/21 08:22:47;;;;;;;1.17;0.60;;;;;;;22.40;37.18;101457.38;16137022;19;130442;-56
2022/06/21 08:28:26;;;;;;;0.63;0.50;;;;;;;22.40;36.82;101444.25;16141705;19;128920;-57
2022/06/21 08:34:18;;;;;;;1.85;0.30;;;;;;;22.43;36.85;101440.13;16136728;19;129997;-57
2022/06/21 08:40:29;;;;;;;1.27;0.40;;;;;;;22.48;36.94;101422.63;16136232;19;128897;-58
2022/06/21 08:46:15;;;;;;;0.93;0.40;;;;;;;22.51;36.83;101420.16;16137496;19;129113;-57
2022/06/21 08:52:01;;;;;;;1.38;0.50;;;;;;;22.52;37.09;101401.50;16135451;19;129415;-57
2022/06/21 08:57:49;;;;;;;0.93;0.40;;;;;;;22.52;36.76;101405.09;16137170;19;129990;-55
2022/06/21 09:03:29;;;;;;;2.75;0.45;;;;;;;22.51;36.45;101391.44;16129228;19;130317;-58
2022/06/21 09:09:10;;;;;;;1.52;0.57;;;;;;;22.49;36.81;101397.25;16139479;19;129117;-58
2022/06/21 09:15:07;;;;;;;0.60;0.43;;;;;;;22.47;36.85;101384.69;16138341;19;130499;-58
2022/06/21 09:20:42;;;;;;;1.05;0.45;;;;;;;22.44;36.66;101386.06;16135364;19;129229;-57
2022/06/21 09:26:27;;;;;;;1.55;0.32;;;;;;;22.41;37.11;101379.03;16138386;19;129285;-57
2022/06/21 09:32:07;;;;;;;0.70;0.40;;;;;;;22.39;37.00;101381.28;16132574;19;129828;-57
2022/06/21 09:37:52;;;;;;;2.20;0.50;;;;;;;22.37;37.16;101391.84;16131992;19;129240;-57
2022/06/21 09:43:39;;;;;;;0.73;0.30;;;;;;;22.36;37.01;101404.09;16127640;19;129160;-58
2022/06/21 09:49:23;;;;;;;2.17;0.60;;;;;;;22.32;37.10;101388.97;16147560;19;129494;-64
2022/06/21 09:55:19;;;;;;;2.95;0.80;;;;;;;22.30;36.80;101396.75;16149845;19;128865;-64
2022/06/21 10:00:57;;;;;;;2.17;0.55;;;;;;;22.29;36.58;101395.06;16146741;19;130198;-63
2022/06/21 10:06:34;;;;;;;3.63;1.05;;;;;;;22.28;36.54;101404.53;16145468;19;130391;-67
2022/06/21 10:12:10;;;;;;;7.63;1.45;;;;;;;22.27;36.71;101408.44;16142214;19;131472;-64
2022/06/21 10:17:46;;;;;;;6.90;0.90;;;;;;;22.28;36.40;101415.69;16146041;19;129303;-64
2022/06/21 10:23:30;;;;;;;4.25;1.00;;;;;;;22.29;36.79;101414.56;16139453;19;129462;-63
2022/06/21 10:29:25;;;;;;;7.60;1.13;;;;;;;22.29;36.50;101411.78;16148549;19;129223;-63
2022/06/21 10:34:56;;;;;;;5.90;1.15;;;;;;;22.27;36.66;101402.88;16141676;19;129698;-63
2022/06/21 10:40:37;;;;;;;4.97;1.00;;;;;;;22.29;36.33;101403.44;16147912;19;128961;-64
2022/06/21 10:46:00;;;;;;;5.75;1.17;;;;;;;22.29;36.41;101400.66;16143510;19;129504;-64
2022/06/21 10:51:42;;;;;;;4.80;0.95;;;;;;;22.30;36.73;101396.75;16146840;19;129949;-64
2022/06/21 10:57:16;;;;;;;4.35;0.90;;;;;;;22.30;36.38;101402.34;16143076;19;130076;-64
2022/06/21 11:02:56;;;;;;;4.35;0.93;;;;;;;22.32;36.47;101405.72;16141503;19;129230;-64
2022/06/21 11:08:24;;;;;;;2.65;0.70;;;;;;;22.31;36.56;101403.19;16148022;19;130337;-64
2022/06/21 11:14:00;;;;;;;5.60;0.90;;;;;;;22.30;36.30;101393.97;16147810;19;129861;-64
2022/06/21 11:19:29;;;;;;;6.38;0.95;;;;;;;22.28;36.56;101387.81;16145879;19;129233;-65
2022/06/21 11:25:30;;;;;;;1.83;0.70;;;;;;;22.28;36.45;101382.22;16145489;19;129360;-64
2022/06/21 11:31:25;;;;;;;4.05;0.90;;;;;;;22.29;36.50;101389.50;16143974;19;130672;-64
2022/06/21 11:37:23;;;;;;;4.63;0.90;;;;;;;22.28;36.42;101387.81;16140707;19;129198;-64
2022/06/21 11:42:58;;;;;;;2.40;0.80;;;;;;;22.27;36.08;101386.16;16139376;19;130344;-65
2022/06/21 11:48:47;;;;;;;3.80;0.70;;;;;;;22.26;36.46;101390.88;16145302;19;129780;-65
2022/06/21 11:54:19;;;;;;;2.53;1.05;;;;;;;22.25;36.24;101380.00;16140179;19;130645;-64
2022/06/21 11:59:45;;;;;;;11.27;1.50;;;;;;;22.23;36.46;101376.63;16138612;19;130523;-65
2022/06/21 12:05:36;;;;;;;3.28;0.75;;;;;;;22.21;36.35;101371.31;16137253;19;129667;-65
2022/06/21 12:11:15;;;;;;;4.60;1.48;;;;;;;22.20;36.00;101368.75;16138012;19;130430;-65
2022/06/21 12:23:08;;;;;;;5.60;0.90;;;;;;;22.17;36.39;101358.09;16136466;19;130193;-64
2022/06/21 12:28:33;;;;;;;2.63;0.70;;;;;;;22.15;36.07;101343.63;16141765;19;130244;-64
2022/06/21 12:34:06;;;;;;;7.87;1.00;;;;;;;22.15;35.83;101340.81;16140817;19;129455;-65
2022/06/21 12:45:57;;;;;;;2.67;0.90;;;;;;;22.11;36.37;101344.13;16134122;19;129252;-65
2022/06/21 12:51:28;;;;;;;4.03;0.90;;;;;;;22.11;36.46;101348.84;16144469;19;129801;-65
2022/06/21 12:57:02;;;;;;;4.78;1.25;;;;;;;22.10;36.17;101341.59;16142850;19;128907;-65
2022/06/21 13:02:45;;;;;;;2.00;0.80;;;;;;;22.09;35.89;101335.19;16138266;19;129310;-65
2022/06/21 13:08:29;;;;;;;2.35;0.70;;;;;;;22.08;35.93;101330.72;16140993;19;128873;-65
2022/06/21 13:14:18;;;;;;;2.88;0.70;;;;;;;22.08;35.81;101333.50;16141592;19;129061;-65
2022/06/21 13:19:40;;;;;;;2.92;0.73;;;;;;;22.06;35.98;101324.53;16131122;19;129813;-65
2022/06/21 13:25:19;;;;;;;2.28;0.70;;;;;;;22.06;36.01;101321.75;16155308;19;129240;-65
2022/06/21 13:37:19;;;;;;;4.80;0.82;;;;;;;22.05;36.15;101338.75;16148510;19;129045;-65
2022/06/21 13:42:50;;;;;;;2.55;0.80;;;;;;;22.04;36.20;101323.97;16149115;19;129168;-65
2022/06/21 13:54:45;;;;;;;1.50;0.75;;;;;;;22.01;36.36;101324.50;16151039;19;129579;-66
2022/06/21 14:00:07;;;;;;;3.67;0.75;;;;;;;22.02;36.08;101322.53;16148037;19;129790;-65
2022/06/21 14:05:46;;;;;;;10.10;0.77;;;;;;;22.04;36.51;101307.25;16150583;19;129140;-66
2022/06/21 14:11:29;;;;;;;13.85;1.05;;;;;;;22.06;36.34;101304.22;16150353;19;129290;-65
2022/06/21 14:16:58;;;;;;;8.05;1.20;;;;;;;22.08;36.43;101302.84;16142912;19;129142;-66
2022/06/21 14:22:31;;;;;;;14.80;1.23;;;;;;;22.10;36.32;101281.13;16144737;19;130205;-66
2022/06/21 14:28:02;;;;;;;20.27;1.70;;;;;;;22.11;36.72;101288.41;16146194;19;128854;-65
2022/06/21 14:33:44;;;;;;;27.73;2.20;;;;;;;22.11;36.59;101291.19;16145627;19;130450;-66
2022/06/21 14:39:28;;;;;;;36.60;3.25;;;;;;;22.13;37.06;101279.75;16148784;19;129097;-65
2022/06/21 14:45:00;;;;;;;31.45;1.88;;;;;;;22.12;36.88;101267.78;16148727;19;129568;-66
2022/06/21 14:50:38;;;;;;;20.30;1.38;;;;;;;22.13;36.90;101263.91;16149863;19;129701;-66
2022/06/21 14:56:13;;;;;;;10.02;1.27;;;;;;;22.17;36.86;101268.94;16148629;19;129389;-66
2022/06/21 15:01:51;;;;;;;13.48;1.30;;;;;;;22.19;36.89;101267.59;16145964;19;128972;-66
2022/06/21 15:07:32;;;;;;;14.00;1.38;;;;;;;22.20;36.77;101263.69;16144294;19;128826;-66
2022/06/21 15:13:11;;;;;;;7.70;1.17;;;;;;;22.23;36.69;101256.78;16147737;19;128895;-65
2022/06/21 15:18:36;;;;;;;10.32;1.02;;;;;;;22.22;36.97;101255.09;16146823;19;129001;-66
2022/06/21 15:24:28;;;;;;;16.98;1.48;;;;;;;22.24;37.06;101266.81;16141398;19;129445;-65
2022/06/21 15:29:56;;;;;;;11.50;1.50;;;;;;;22.26;36.94;101250.69;16142199;19;130026;-65
2022/06/21 15:35:18;;;;;;;9.38;1.30;;;;;;;22.27;37.13;101256.00;16142204;19;129498;-65
2022/06/21 15:40:46;;;;;;;6.32;0.90;;;;;;;22.32;36.99;101259.94;16143988;19;129494;-65
2022/06/21 15:46:31;;;;;;;10.02;1.40;;;;;;;22.34;37.24;101247.41;16140936;19;128822;-65
2022/06/21 15:52:24;;;;;;;10.23;1.40;;;;;;;22.35;37.32;101228.72;16143481;19;129188;-66
2022/06/21 15:58:01;;;;;;;8.82;1.05;;;;;;;22.36;37.08;101234.06;16143405;19;129421;-65
2022/06/21 16:03:28;;;;;;;6.95;1.00;;;;;;;22.38;37.09;101237.44;16140059;19;129693;-63
2022/06/21 16:08:58;;;;;;;6.50;1.05;;;;;;;22.41;37.09;101245.25;16143375;19;129474;-63
2022/06/21 16:14:27;;;;;;;10.52;1.27;;;;;;;22.43;36.95;101237.47;16143236;19;130587;-61
2022/06/21 16:20:05;;;;;;;2.80;0.90;;;;;;;22.42;37.21;101221.84;16141001;19;128894;-62
2022/06/21 16:25:37;;;;;;;7.93;1.40;;;;;;;22.40;36.70;101218.47;16147786;19;129317;-62
2022/06/21 16:37:04;;;;;;;8.57;1.40;;;;;;;22.37;36.79;101218.16;16136411;19;129196;-63
2022/06/21 16:42:54;;;;;;;8.50;1.00;;;;;;;22.35;36.60;101209.22;16136928;19;130256;-63
2022/06/21 16:48:32;;;;;;;5.75;1.30;;;;;;;22.35;36.45;101198.06;16141720;19;131638;-63
2022/06/21 16:53:59;;;;;;;6.40;1.08;;;;;;;22.37;36.61;101196.72;16142116;19;129552;-63
2022/06/21 16:59:24;;;;;;;6.07;1.10;;;;;;;22.35;36.62;101182.19;16139203;19;129919;-61
2022/06/21 17:05:03;;;;;;;4.93;1.55;;;;;;;22.35;36.88;101185.00;16134108;19;129304;-61
2022/06/21 17:10:24;;;;;;;4.80;1.38;;;;;;;22.34;36.61;101191.66;16139610;19;130124;-61
2022/06/21 17:15:49;;;;;;;5.80;1.25;;;;;;;22.34;36.66;101202.00;16140315;19;132134;-61
2022/06/21 17:21:31;;;;;;;4.25;1.20;;;;;;;22.32;36.98;101199.44;16139250;19;129274;-61
2022/06/21 17:27:21;;;;;;;7.18;1.48;;;;;;;22.31;37.25;101202.50;16141095;19;129262;-61
2022/06/21 17:32:55;;;;;;;6.30;1.15;;;;;;;22.29;37.54;101211.13;16138936;19;130463;-61
2022/06/21 17:38:44;;;;;;;1.85;0.80;;;;;;;22.26;37.56;101198.56;16139016;19;131941;-61
2022/06/21 17:44:29;;;;;;;2.83;1.10;;;;;;;22.25;37.22;101210.81;16134052;19;129323;-61
2022/06/21 17:50:15;;;;;;;3.63;0.95;;;;;;;22.24;37.50;101220.28;16136961;19;129889;-61
2022/06/21 17:55:43;;;;;;;3.67;0.90;;;;;;;22.23;37.47;101212.19;16135679;19;129513;-61
2022/06/21 18:01:30;;;;;;;5.82;0.70;;;;;;;22.23;37.55;101209.41;16135793;19;129488;-61
2022/06/21 18:07:13;;;;;;;2.45;0.70;;;;;;;22.22;37.59;101221.66;16138915;19;129297;-61
2022/06/21 18:13:23;;;;;;;2.72;0.80;;;;;;;22.19;37.99;101223.00;16147896;19;129222;-61
2022/06/21 18:18:44;;;;;;;3.92;0.73;;;;;;;22.18;37.90;101226.03;16149795;19;129540;-61
2022/06/21 18:24:31;;;;;;;3.60;0.85;;;;;;;22.20;38.20;101229.41;16146202;19;129477;-61
2022/06/21 18:30:06;;;;;;;;;;;;;;;22.15;38.07;101221.84;16149741;19;129051;-61
2022/06/21 18:35:32;;;;;;;2.38;0.70;;;;;;;22.17;38.32;101213.19;16146633;19;128932;-61
2022/06/21 18:41:14;;;;;;;2.97;0.80;;;;;;;22.16;38.14;101211.50;16149386;19;129527;-61
2022/06/21 18:46:50;;;;;;;2.25;0.60;;;;;;;22.14;38.38;101214.56;16151701;19;129433;-61
2022/06/21 18:52:26;;;;;;;2.47;0.60;;;;;;;22.13;38.31;101230.47;16149688;19;129287;-61
2022/06/21 18:58:08;;;;;;;2.63;0.68;;;;;;;22.13;38.59;101213.75;16149043;19;130348;-61
2022/06/21 19:03:38;;;;;;;2.78;0.68;;;;;;;22.09;38.36;101223.72;16144640;19;129313;-61
2022/06/21 19:09:41;;;;;;;2.53;0.60;;;;;;;22.10;38.49;101232.91;16147271;19;129953;-61
2022/06/21 19:15:18;;;;;;;1.55;0.60;;;;;;;22.07;38.54;101227.88;16148189;19;128913;-61
2022/06/21 19:21:04;;;;;;;2.88;0.80;;;;;;;22.06;38.84;101226.22;16145252;19;129222;-61
2022/06/21 19:26:51;;;;;;;1.70;0.60;;;;;;;22.04;38.66;101226.44;16147972;19;129009;-61
2022/06/21 19:32:38;;;;;;;3.47;0.57;;;;;;;22.02;38.49;101228.69;16146055;19;129364;-61
2022/06/21 19:38:05;;;;;;;3.40;0.68;;;;;;;22.00;38.83;101221.66;16144135;19;129497;-61
2022/06/21 19:43:35;;;;;;;1.92;0.70;;;;;;;21.98;39.05;101222.78;16141933;19;129066;-61
2022/06/21 19:49:03;;;;;;;2.30;0.47;;;;;;;21.99;39.06;101218.06;16145315;19;128970;-61
2022/06/21 19:54:39;;;;;;;3.92;0.70;;;;;;;21.98;39.28;101210.78;16145490;19;129463;-61
2022/06/21 20:00:07;;;;;;;2.33;0.68;;;;;;;21.97;39.54;101211.91;16145402;19;132139;-61
2022/06/21 20:05:35;;;;;;;2.95;0.65;;;;;;;21.96;39.35;101201.84;16140580;19;129029;-61
2022/06/21 20:11:07;;;;;;;1.15;0.57;;;;;;;21.94;39.26;101207.69;16138392;19;129903;-61
2022/06/21 20:16:50;;;;;;;2.17;0.30;;;;;;;21.94;39.75;101218.84;16140582;19;129319;-60
2022/06/21 20:22:49;;;;;;;2.35;0.50;;;;;;;21.91;39.65;101210.19;16136581;19;130458;-60
2022/06/21 20:28:27;;;;;;;4.25;0.60;;;;;;;21.92;39.93;101234.97;16142404;19;129469;-60
2022/06/21 20:33:58;;;;;;;2.42;0.40;;;;;;;21.91;40.12;101241.66;16135670;19;130479;-61
2022/06/21 20:39:44;;;;;;;2.70;0.63;;;;;;;21.91;39.99;101243.59;16138824;19;129552;-61
2022/06/21 20:45:11;;;;;;;3.58;0.47;;;;;;;21.88;39.67;101232.97;16132492;19;131433;-60
2022/06/21 20:50:36;;;;;;;5.20;0.60;;;;;;;21.88;39.88;101230.19;16128866;19;130711;-61
2022/06/21 20:56:01;;;;;;;2.92;0.70;;;;;;;21.87;39.96;101217.38;16133744;19;129569;-60
2022/06/21 21:01:26;;;;;;;3.13;0.60;;;;;;;21.86;40.04;101213.72;16127788;19;130576;-61
2022/06/21 21:06:51;;;;;;;3.53;0.70;;;;;;;21.86;39.76;101207.31;16131421;19;130152;-60
2022/06/21 21:12:17;;;;;;;3.67;0.38;;;;;;;21.86;39.86;101218.47;16129037;19;130444;-61
2022/06/21 21:17:43;;;;;;;3.50;0.40;;;;;;;21.83;40.40;101219.84;16130972;19;130252;-60
2022/06/21 21:23:11;;;;;;;1.85;0.68;;;;;;;21.85;40.28;101230.72;16129039;19;130150;-60
2022/06/21 21:28:33;;;;;;;2.63;0.57;;;;;;;21.82;40.14;101224.56;16130648;19;130245;-60
2022/06/21 21:34:27;;;;;;;1.65;0.55;;;;;;;21.83;40.67;101226.22;16126640;19;130977;-60
2022/06/21 21:39:52;;;;;;;4.90;0.65;;;;;;;21.81;40.51;101225.66;16128539;19;129726;-61
2022/06/21 21:45:16;;;;;;;2.38;0.50;;;;;;;21.80;40.72;101231.50;16136238;19;129990;-61
2022/06/21 21:50:38;;;;;;;4.97;0.50;;;;;;;21.79;40.89;101230.63;16143520;19;130609;-60
2022/06/21 21:56:01;;;;;;;3.80;0.57;;;;;;;21.78;40.61;101237.34;16146432;19;129370;-60
2022/06/21 22:01:31;;;;;;;1.98;0.47;;;;;;;21.78;40.80;101240.13;16143936;19;129561;-61
2022/06/21 22:07:23;;;;;;;2.70;0.43;;;;;;;21.79;40.80;101244.56;16147120;19;130044;-60
2022/06/21 22:12:59;;;;;;;1.08;0.47;;;;;;;21.78;40.67;101261.53;16146667;19;129403;-60
2022/06/21 22:18:54;;;;;;;2.40;0.40;;;;;;;21.76;41.14;101264.59;16148442;19;129177;-61
2022/06/21 22:24:20;;;;;;;2.55;0.47;;;;;;;21.75;41.04;101268.47;16142100;19;130173;-60
2022/06/21 22:29:45;;;;;;;1.55;0.43;;;;;;;21.75;41.08;101278.75;16145781;19;129658;-60
2022/06/21 22:35:11;;;;;;;0.85;0.30;;;;;;;21.74;40.97;101286.28;16142051;19;129772;-61
2022/06/21 22:40:37;;;;;;;2.60;0.40;;;;;;;21.74;41.46;101291.00;16141758;19;129722;-61
2022/06/21 22:46:05;;;;;;;1.08;0.60;;;;;;;21.72;41.26;101302.41;16137883;19;129747;-61
2022/06/21 22:51:30;;;;;;;2.00;0.43;;;;;;;21.72;41.60;101307.16;16143112;19;129750;-61
2022/06/21 22:56:57;;;;;;;1.33;0.30;;;;;;;21.71;41.39;101306.28;16143570;19;129330;-61
2022/06/21 23:02:37;;;;;;;1.20;0.35;;;;;;;21.71;41.22;101299.88;16150535;19;130440;-61
2022/06/21 23:08:08;;;;;;;1.58;0.50;;;;;;;21.69;41.76;101289.00;16155717;19;129068;-61
2022/06/21 23:13:40;;;;;;;2.17;0.50;;;;;;;21.69;41.26;101263.09;16157298;19;129407;-60
2022/06/21 23:19:04;;;;;;;1.75;0.68;;;;;;;21.66;41.41;101270.88;16159953;19;128890;-61
2022/06/21 23:24:27;;;;;;;0.88;0.52;;;;;;;21.65;41.56;101271.97;16159947;19;128770;-61
2022/06/21 23:29:57;;;;;;;1.95;0.73;;;;;;;21.66;41.27;101231.06;16161045;19;128945;-60
2022/06/21 23:35:50;;;;;;;1.73;0.70;;;;;;;21.64;41.19;101205.41;16156480;19;129947;-61
2022/06/21 23:41:16;;;;;;;1.67;0.65;;;;;;;21.63;41.24;101226.00;16193253;19;129963;-61
2022/06/21 23:46:44;;;;;;;2.03;0.82;;;;;;;21.63;41.31;101249.09;16218753;19;128944;-61
2022/06/21 23:52:07;;;;;;;2.00;0.50;;;;;;;21.62;41.53;101260.50;16221433;19;129091;-61
2022/06/21 23:57:31;;;;;;;0.90;0.50;;;;;;;21.61;41.51;101272.75;16224577;19;129060;-61
